Main page
METAR-TAF:

METAR-TAF

Airports :

Karpathos, Greece

Karpathos Island National Airport

latitude: 35-24-51N, longitude: 027-08-54E, elevation: 6 m

Current weather observation

The report was made 10 minutes ago, at 09:50 UTC
Wind 23 kt from the West/Northwest
Temperature 20°C
Humidity 68%
Pressure 1017 hPa
Visibility 10 km or more
Few clouds at a height of 2000 ft

METAR: LGKP 190950Z 29023KT 9999 FEW020 20/14 Q1017

Time: 13:00 (10:00 UTC)

Forecast

The report was made 2 hours and 0 minutes ago, at 08:00 UTC
Forecast valid from 19 at 09 UTC to 19 at 18 UTC
Wind 20 kt from the West/Northwest
Visibility 10 km or more
Few clouds at a height of 2000 ft

TAF: LGKP 190800Z 1909/1918 29020KT 9999 FEW020

Weather observations and forecasts of more than 4000 airports (METAR and TAF reports).

The available stations are represented by yellow and red dots on the map.

Hover mouse over dot to see the name of the station.

Then click to see weather observations and forecasts.

To change the map : click on the green buttons with a black cross to zoom in, on the green button with a dash to zoom out, or on the green arrows for adjacent maps.


METAR-TAF: